Time;durP1;ratioP1;P1;durP2;ratioP2;P2;SDS_P1;SDS_P2;PMS_P1;PMS_P2;Temp;Humidity;BMP_temperature;BMP_pressure;BME280_temperature;BME280_humidity;BME280_pressure;Samples;Min_cycle;Max_cycle;Signal;HPM_P1;HPM_P2
2022/11/24 00:01:28;;;;;;;25.42;4.45;;;;;;;;;;4412211;32;19965;-74
2022/11/24 00:03:58;;;;;;;19.75;3.95;;;;;;;;;;4421012;32;20062;-74
2022/11/24 00:06:23;;;;;;;26.35;5.95;;;;;;;;;;4422393;32;20077;-74
2022/11/24 00:08:49;;;;;;;;;;;;;;;;;;4422929;32;20057;-75
2022/11/24 00:11:15;;;;;;;22.00;4.02;;;;;;;;;;4407592;32;19955;-74
2022/11/24 00:13:40;;;;;;;27.13;5.85;;;;;;;;;;4420925;32;20052;-73
2022/11/24 00:16:06;;;;;;;;;;;;;;;;;;4422360;32;20030;-73
2022/11/24 00:18:31;;;;;;;34.67;7.15;;;;;;;;;;4422460;32;19938;-72
2022/11/24 00:20:56;;;;;;;;;;;;;;;;;;4421847;32;20018;-72
2022/11/24 00:23:21;;;;;;;22.90;5.15;;;;;;;;;;4424481;32;19937;-73
2022/11/24 00:25:46;;;;;;;;;;;;;;;;;;4424454;32;20153;-73
2022/11/24 00:28:12;;;;;;;26.42;6.03;;;;;;;;;;4425917;32;19937;-74
2022/11/24 00:30:37;;;;;;;;;;;;;;;;;;4424049;32;20194;-73
2022/11/24 00:33:02;;;;;;;31.98;6.47;;;;;;;;;;4410237;32;19951;-73
2022/11/24 00:35:27;;;;;;;;;;;;;;;;;;4426219;32;20126;-73
2022/11/24 00:37:54;;;;;;;26.90;6.68;;;;;;;;;;4425614;32;19947;-73
2022/11/24 00:40:19;;;;;;;32.95;6.15;;;;;;;;;;4425924;32;20152;-73
2022/11/24 00:42:44;;;;;;;;;;;;;;;;;;4425522;32;20027;-72
2022/11/24 00:45:09;;;;;;;24.80;5.20;;;;;;;;;;4425012;32;20010;-72
2022/11/24 00:47:35;;;;;;;25.33;5.25;;;;;;;;;;4427378;32;20164;-72
2022/11/24 00:50:00;;;;;;;;;;;;;;;;;;4426534;32;20093;-72
2022/11/24 00:52:25;;;;;;;19.98;6.38;;;;;;;;;;4409673;32;19937;-72
2022/11/24 00:54:50;;;;;;;;;;;;;;;;;;4416105;32;20072;-72
2022/11/24 00:57:15;;;;;;;24.25;5.22;;;;;;;;;;4425744;32;19933;-72
2022/11/24 00:59:40;;;;;;;;;;;;;;;;;;4424271;32;20165;-73
2022/11/24 01:02:06;;;;;;;25.37;5.97;;;;;;;;;;4424791;32;19937;-72
2022/11/24 01:04:31;;;;;;;;;;;;;;;;;;4425014;32;20137;-72
2022/11/24 01:06:56;;;;;;;20.83;4.65;;;;;;;;;;4423651;32;19941;-72
2022/11/24 01:09:21;;;;;;;;;;;;;;;;;;4423644;32;20118;-72
2022/11/24 01:12:02;;;;;;;23.85;4.80;;;;;;;;;;4422952;32;19977;-71
2022/11/24 01:14:28;;;;;;;23.73;5.60;;;;;;;;;;4409696;32;20174;-71
2022/11/24 01:16:53;;;;;;;;;;;;;;;;;;4423650;32;20093;-71
2022/11/24 01:19:19;;;;;;;21.00;4.55;;;;;;;;;;4423397;32;19967;-72
2022/11/24 01:21:44;;;;;;;;;;;;;;;;;;4424694;32;20126;-72
2022/11/24 01:24:09;;;;;;;20.90;4.30;;;;;;;;;;4422656;32;20358;-72
2022/11/24 01:26:35;;;;;;;;;;;;;;;;;;4424649;32;20722;-72
2022/11/24 01:29:00;;;;;;;20.35;4.70;;;;;;;;;;4422941;32;19943;-71
2022/11/24 01:31:25;;;;;;;;;;;;;;;;;;4423484;32;20148;-72
2022/11/24 01:33:51;;;;;;;20.27;3.97;;;;;;;;;;4422293;32;19947;-72
2022/11/24 01:36:16;;;;;;;;;;;;;;;;;;4422478;32;20452;-72
2022/11/24 01:38:41;;;;;;;20.37;5.25;;;;;;;;;;4431163;27;19983;-71
2022/11/24 01:41:17;;;;;;;29.17;4.90;;;;;;;;;;4418481;32;20103;-71
2022/11/24 01:43:43;;;;;;;19.67;4.40;;;;;;;;;;4417432;32;20056;-71
2022/11/24 01:46:27;;;;;;;15.13;3.65;;;;;;;;;;4420544;32;20022;-71
2022/11/24 01:49:10;;;;;;;24.37;4.82;;;;;;;;;;4420658;32;20048;-71
2022/11/24 01:51:40;;;;;;;22.80;4.12;;;;;;;;;;4421372;32;20038;-71
2022/11/24 01:54:08;;;;;;;18.02;4.43;;;;;;;;;;4414047;32;20507;-71
2022/11/24 01:56:34;;;;;;;20.17;4.55;;;;;;;;;;4419081;32;20408;-71
2022/11/24 01:59:01;;;;;;;22.80;4.25;;;;;;;;;;4420318;32;20071;-71
2022/11/24 02:01:27;;;;;;;16.77;3.97;;;;;;;;;;4421819;32;20030;-71
2022/11/24 02:03:53;;;;;;;18.50;3.67;;;;;;;;;;4420490;32;20042;-71
2022/11/24 02:06:18;;;;;;;;;;;;;;;;;;4422021;32;20026;-71
2022/11/24 02:09:01;;;;;;;21.62;3.78;;;;;;;;;;4420436;32;19979;-71
2022/11/24 02:11:28;;;;;;;26.80;4.12;;;;;;;;;;4420710;32;20186;-72
2022/11/24 02:13:54;;;;;;;15.13;3.62;;;;;;;;;;4420665;32;20086;-72
2022/11/24 02:16:19;;;;;;;;;;;;;;;;;;4422043;32;20336;-69
2022/11/24 02:18:44;;;;;;;11.70;3.62;;;;;;;;;;4421881;32;19967;-70
2022/11/24 02:21:09;;;;;;;;;;;;;;;;;;4432932;32;20128;-70
2022/11/24 02:23:53;;;;;;;17.70;3.90;;;;;;;;;;4405177;32;19948;-71
2022/11/24 02:26:24;;;;;;;18.58;3.87;;;;;;;;;;4405739;32;20034;-71
2022/11/24 02:28:50;;;;;;;27.13;3.80;;;;;;;;;;4405082;32;20443;-71
2022/11/24 02:31:15;;;;;;;;;;;;;;;;;;4405324;32;20090;-71
2022/11/24 02:33:40;;;;;;;22.80;3.87;;;;;;;;;;4421406;32;19951;-71
2022/11/24 02:36:06;;;;;;;;;;;;;;;;;;4417524;32;20018;-71
2022/11/24 02:38:32;;;;;;;19.80;3.80;;;;;;;;;;4408893;32;19950;-71
2022/11/24 02:40:59;;;;;;;19.62;3.42;;;;;;;;;;4418913;32;20363;-71
2022/11/24 02:43:24;;;;;;;18.17;3.42;;;;;;;;;;4421729;32;20026;-71
2022/11/24 02:45:49;;;;;;;;;;;;;;;;;;4420403;32;20076;-71
2022/11/24 02:48:15;;;;;;;14.30;2.85;;;;;;;;;;4420692;32;20312;-71
2022/11/24 02:50:40;;;;;;;10.73;3.03;;;;;;;;;;4421763;32;20025;-72
2022/11/24 02:53:05;;;;;;;7.95;2.50;;;;;;;;;;4420166;32;20018;-72
2022/11/24 02:55:30;;;;;;;;;;;;;;;;;;4420036;32;20038;-72
2022/11/24 02:57:56;;;;;;;12.20;1.95;;;;;;;;;;4419113;32;19952;-72
2022/11/24 03:00:21;;;;;;;;;;;;;;;;;;4419948;32;20398;-72
2022/11/24 03:02:46;;;;;;;4.47;1.48;;;;;;;;;;4420131;32;19979;-72
2022/11/24 03:05:11;;;;;;;;;;;;;;;;;;4419853;32;20155;-72
2022/11/24 03:07:36;;;;;;;8.00;2.05;;;;;;;;;;4420900;32;19985;-72
2022/11/24 03:10:02;;;;;;;;;;;;;;;;;;4418991;32;20152;-71
2022/11/24 03:12:27;;;;;;;9.93;1.87;;;;;;;;;;4419544;32;19942;-71
2022/11/24 03:14:52;;;;;;;;;;;;;;;;;;4421641;32;20544;-70
2022/11/24 03:17:17;;;;;;;5.20;1.52;;;;;;;;;;4418497;32;19963;-70
2022/11/24 03:19:42;;;;;;;;;;;;;;;;;;4421782;32;20129;-71
2022/11/24 03:22:07;;;;;;;8.65;2.00;;;;;;;;;;4419854;32;20000;-72
2022/11/24 03:24:32;;;;;;;;;;;;;;;;;;4420748;32;20051;-70
2022/11/24 03:26:58;;;;;;;9.75;2.47;;;;;;;;;;4419143;32;19956;-71
2022/11/24 03:29:23;;;;;;;7.97;2.53;;;;;;;;;;4421736;32;20026;-71
2022/11/24 03:31:48;;;;;;;6.32;2.28;;;;;;;;;;4419855;32;20425;-71
2022/11/24 03:34:13;;;;;;;13.73;3.05;;;;;;;;;;4421616;32;20072;-71
2022/11/24 03:36:38;;;;;;;;;;;;;;;;;;4421784;32;20580;-71
2022/11/24 03:39:04;;;;;;;15.13;3.03;;;;;;;;;;4419634;32;19949;-71
2022/11/24 03:41:29;;;;;;;16.70;4.03;;;;;;;;;;4421574;32;20065;-71
2022/11/24 03:43:54;;;;;;;;;;;;;;;;;;4420042;32;20467;-71
2022/11/24 03:46:19;;;;;;;26.12;3.78;;;;;;;;;;4420837;32;19945;-71
2022/11/24 03:48:44;;;;;;;15.40;4.40;;;;;;;;;;4421325;32;20030;-70
2022/11/24 03:51:10;;;;;;;26.15;5.00;;;;;;;;;;4421360;32;20088;-71
2022/11/24 03:53:35;;;;;;;;;;;;;;;;;;4421338;32;20022;-71
2022/11/24 03:56:00;;;;;;;28.73;3.83;;;;;;;;;;4421321;32;19988;-72
2022/11/24 03:58:26;;;;;;;;;;;;;;;;;;4424106;32;20527;-72
2022/11/24 04:00:52;;;;;;;17.60;5.18;;;;;;;;;;4422188;32;20094;-71
2022/11/24 04:03:18;;;;;;;;;;;;;;;;;;4424703;32;20148;-71
2022/11/24 04:05:43;;;;;;;18.85;4.70;;;;;;;;;;4422150;32;19952;-71
2022/11/24 04:08:08;;;;;;;;;;;;;;;;;;4424446;32;20462;-70
2022/11/24 04:10:35;;;;;;;20.77;4.18;;;;;;;;;;4423962;32;19933;-70
2022/11/24 04:13:00;;;;;;;16.87;4.22;;;;;;;;;;4423608;32;20175;-70
2022/11/24 04:15:26;;;;;;;;;;;;;;;;;;4422784;32;20030;-70
2022/11/24 04:17:53;;;;;;;18.25;5.95;;;;;;;;;;4422540;32;19937;-70
2022/11/24 04:20:18;;;;;;;16.80;4.68;;;;;;;;;;4420920;32;20057;-70
2022/11/24 04:22:43;;;;;;;;;;;;;;;;;;4421785;32;20034;-70
2022/11/24 04:25:08;;;;;;;22.50;5.40;;;;;;;;;;4423025;32;19985;-71
2022/11/24 04:27:33;;;;;;;;;;;;;;;;;;4422253;32;20122;-69
2022/11/24 04:29:58;;;;;;;13.75;4.32;;;;;;;;;;4421623;32;19945;-70
2022/11/24 04:32:24;;;;;;;10.95;4.10;;;;;;;;;;4421445;32;20053;-70
2022/11/24 04:34:49;;;;;;;;;;;;;;;;;;4422118;32;20162;-71
2022/11/24 04:37:14;;;;;;;11.25;2.85;;;;;;;;;;4423923;32;20293;-70
2022/11/24 04:39:39;;;;;;;;;;;;;;;;;;4422128;32;20293;-70
2022/11/24 04:42:05;;;;;;;16.23;3.35;;;;;;;;;;4421805;32;19948;-70
2022/11/24 04:44:30;;;;;;;10.93;3.55;;;;;;;;;;4422122;32;20445;-71
2022/11/24 04:46:55;;;;;;;;;;;;;;;;;;4422137;32;20131;-72
2022/11/24 04:49:20;;;;;;;7.53;2.33;;;;;;;;;;4421946;32;19968;-71
2022/11/24 04:51:45;;;;;;;;;;;;;;;;;;4422511;32;20121;-69
2022/11/24 04:54:11;;;;;;;6.53;1.73;;;;;;;;;;4422406;32;19969;-70
2022/11/24 04:56:37;;;;;;;6.75;1.55;;;;;;;;;;4421174;32;20022;-70
2022/11/24 04:59:02;;;;;;;;;;;;;;;;;;4422693;32;20048;-70
2022/11/24 05:01:27;;;;;;;4.65;1.33;;;;;;;;;;4422230;32;20255;-71
2022/11/24 05:03:53;;;;;;;;;;;;;;;;;;4423161;32;20056;-71
2022/11/24 05:06:18;;;;;;;6.25;1.67;;;;;;;;;;4421523;32;20064;-70
2022/11/24 05:08:45;;;;;;;7.07;1.67;;;;;;;;;;4421160;32;20416;-69
2022/11/24 05:11:10;;;;;;;5.22;1.60;;;;;;;;;;4422837;32;20073;-70
2022/11/24 05:13:35;;;;;;;;;;;;;;;;;;4422645;32;20110;-70
2022/11/24 05:16:00;;;;;;;6.43;1.80;;;;;;;;;;4411256;32;20032;-70
2022/11/24 05:18:26;;;;;;;6.37;2.67;;;;;;;;;;4408117;32;20100;-68
2022/11/24 05:20:51;;;;;;;;;;;;;;;;;;4421910;32;20029;-69
2022/11/24 05:23:16;;;;;;;6.40;1.50;;;;;;;;;;4415560;32;19941;-69
2022/11/24 05:25:41;;;;;;;4.18;1.50;;;;;;;;;;4423809;32;20063;-69
2022/11/24 05:28:08;;;;;;;6.05;1.58;;;;;;;;;;4423768;32;20053;-69
2022/11/24 05:30:35;;;;;;;3.92;1.35;;;;;;;;;;4430757;32;20403;-68
2022/11/24 05:33:03;;;;;;;5.00;1.65;;;;;;;;;;4419150;32;20175;-70
2022/11/24 05:35:29;;;;;;;7.57;1.62;;;;;;;;;;4426350;32;20068;-70
2022/11/24 05:37:54;;;;;;;;;;;;;;;;;;4410926;32;20097;-69
2022/11/24 05:40:19;;;;;;;6.28;1.75;;;;;;;;;;4427223;32;20023;-69
2022/11/24 05:42:44;;;;;;;;;;;;;;;;;;4420064;32;20034;-72
2022/11/24 05:45:14;;;;;;;6.45;2.10;;;;;;;;;;4419406;32;19969;-69
2022/11/24 05:47:40;;;;;;;7.20;1.95;;;;;;;;;;4421654;32;20182;-70
2022/11/24 05:50:05;;;;;;;;;;;;;;;;;;4415787;32;20416;-70
2022/11/24 05:52:30;;;;;;;6.65;2.40;;;;;;;;;;4420402;32;19989;-70
2022/11/24 05:54:55;;;;;;;;;;;;;;;;;;4435882;32;20125;-69
2022/11/24 05:57:20;;;;;;;7.78;2.65;;;;;;;;;;4436644;32;19968;-69
2022/11/24 05:59:45;;;;;;;10.85;3.87;;;;;;;;;;4437848;32;20463;-69
2022/11/24 06:02:11;;;;;;;;;;;;;;;;;;4435982;32;20022;-69
2022/11/24 06:04:36;;;;;;;9.50;4.50;;;;;;;;;;4435607;32;19989;-69
2022/11/24 06:07:01;;;;;;;13.80;4.53;;;;;;;;;;4435547;32;20029;-68
2022/11/24 06:09:26;;;;;;;;;;;;;;;;;;4436251;32;20086;-69
2022/11/24 06:11:52;;;;;;;13.13;4.97;;;;;;;;;;4436669;32;19948;-70
2022/11/24 06:14:17;;;;;;;;;;;;;;;;;;4437383;32;20519;-71
2022/11/24 06:16:42;;;;;;;12.60;4.95;;;;;;;;;;4435509;32;19933;-71
2022/11/24 06:19:08;;;;;;;14.02;5.35;;;;;;;;;;4433027;32;20047;-71
2022/11/24 06:21:33;;;;;;;13.50;6.03;;;;;;;;;;4418201;32;20056;-71
2022/11/24 06:23:58;;;;;;;;;;;;;;;;;;4421761;32;20352;-70
2022/11/24 06:26:24;;;;;;;16.52;6.68;;;;;;;;;;4418098;32;19959;-72
2022/11/24 06:28:49;;;;;;;;;;;;;;;;;;4420452;32;20107;-70
2022/11/24 06:31:14;;;;;;;18.27;7.65;;;;;;;;;;4420290;32;20004;-70
2022/11/24 06:33:39;;;;;;;;;;;;;;;;;;4420484;32;20584;-72
2022/11/24 06:36:06;;;;;;;18.25;7.22;;;;;;;;;;4419261;32;19933;-72
2022/11/24 06:38:31;;;;;;;13.68;6.75;;;;;;;;;;4418597;32;20125;-72
2022/11/24 06:40:56;;;;;;;;;;;;;;;;;;4420183;32;20026;-71
2022/11/24 06:43:22;;;;;;;14.93;7.15;;;;;;;;;;4419275;32;19941;-71
2022/11/24 06:45:50;;;;;;;15.57;7.28;;;;;;;;;;4419653;32;20079;-71
2022/11/24 06:48:15;;;;;;;13.60;6.65;;;;;;;;;;4418598;32;20038;-70
2022/11/24 06:50:40;;;;;;;;;;;;;;;;;;4420772;32;20093;-70
2022/11/24 06:53:06;;;;;;;14.87;6.78;;;;;;;;;;4419532;32;19941;-71
2022/11/24 06:55:31;;;;;;;14.82;6.65;;;;;;;;;;4421533;32;20156;-69
2022/11/24 06:57:56;;;;;;;;;;;;;;;;;;4421017;32;20423;-70
2022/11/24 07:00:22;;;;;;;13.27;5.90;;;;;;;;;;4419919;32;20283;-71
2022/11/24 07:02:47;;;;;;;13.95;6.57;;;;;;;;;;4419878;32;20045;-70
2022/11/24 07:05:12;;;;;;;;;;;;;;;;;;4421074;32;20343;-69
2022/11/24 07:07:37;;;;;;;15.13;6.78;;;;;;;;;;4417490;32;19956;-71
2022/11/24 07:10:02;;;;;;;;;;;;;;;;;;4420562;32;20118;-71
2022/11/24 07:12:32;;;;;;;15.95;6.47;;;;;;;;;;4416898;32;19957;-71
2022/11/24 07:14:57;;;;;;;12.43;7.07;;;;;;;;;;4419930;32;20026;-70
2022/11/24 07:17:22;;;;;;;;;;;;;;;;;;4419342;32;20026;-70
2022/11/24 07:19:47;;;;;;;19.48;8.05;;;;;;;;;;4416095;32;19949;-69
2022/11/24 07:22:12;;;;;;;;;;;;;;;;;;4406176;32;20141;-70
2022/11/24 07:24:37;;;;;;;24.42;8.88;;;;;;;;;;4421153;32;19936;-70
2022/11/24 07:27:03;;;;;;;;;;;;;;;;;;4435924;32;20279;-70
2022/11/24 07:29:28;;;;;;;20.67;8.95;;;;;;;;;;4434357;32;19941;-70
2022/11/24 07:31:53;;;;;;;;;;;;;;;;;;4407902;32;20022;-71
2022/11/24 07:34:18;;;;;;;21.55;9.65;;;;;;;;;;4406915;32;20311;-70
2022/11/24 07:36:43;;;;;;;;;;;;;;;;;;4408648;32;20126;-69
2022/11/24 07:39:09;;;;;;;15.15;8.05;;;;;;;;;;4406771;32;20245;-70
2022/11/24 07:41:34;;;;;;;;;;;;;;;;;;4419260;32;20395;-70
2022/11/24 07:43:59;;;;;;;19.20;8.32;;;;;;;;;;4415732;32;19980;-70
2022/11/24 07:46:24;;;;;;;17.02;6.37;;;;;;;;;;4423444;32;20052;-70
2022/11/24 07:48:49;;;;;;;;;;;;;;;;;;4435166;32;20118;-70
2022/11/24 07:51:15;;;;;;;23.77;6.62;;;;;;;;;;4420821;32;20266;-69
2022/11/24 07:53:40;;;;;;;;;;;;;;;;;;4423041;32;20073;-69
2022/11/24 07:56:05;;;;;;;18.48;5.66;;;;;;;;;;4421046;32;20009;-71
2022/11/24 07:58:30;;;;;;;;;;;;;;;;;;4421143;32;20396;-70
2022/11/24 08:00:56;;;;;;;16.45;5.68;;;;;;;;;;4422856;32;19941;-70
2022/11/24 08:03:21;;;;;;;;;;;;;;;;;;4419260;32;20026;-70
2022/11/24 08:05:57;;;;;;;17.50;5.06;;;;;;;;;;4414376;32;19941;-69
2022/11/24 08:08:22;;;;;;;22.90;5.07;;;;;;;;;;4415079;32;20026;-70
2022/11/24 08:10:47;;;;;;;;;;;;;;;;;;4413959;32;20485;-70
2022/11/24 08:13:12;;;;;;;16.12;3.83;;;;;;;;;;4413446;32;19951;-70
2022/11/24 08:15:38;;;;;;;;;;;;;;;;;;4409035;32;20163;-70
2022/11/24 08:18:03;;;;;;;19.62;3.70;;;;;;;;;;4412037;32;19937;-71
2022/11/24 08:20:28;;;;;;;;;;;;;;;;;;4409481;32;20030;-71
2022/11/24 08:22:58;;;;;;;17.98;4.75;;;;;;;;;;4413571;32;19937;-70
2022/11/24 08:25:25;;;;;;;16.70;4.53;;;;;;;;;;4414082;32;20448;-69
2022/11/24 08:27:50;;;;;;;12.20;3.37;;;;;;;;;;4414347;32;20069;-72
2022/11/24 08:30:15;;;;;;;;;;;;;;;;;;4417858;32;20064;-71
2022/11/24 08:32:41;;;;;;;17.35;4.40;;;;;;;;;;4412483;32;20360;-71
2022/11/24 08:35:06;;;;;;;;;;;;;;;;;;4411971;32;20129;-70
2022/11/24 08:37:31;;;;;;;19.50;4.48;;;;;;;;;;4415916;32;19933;-71
2022/11/24 08:39:56;;;;;;;;;;;;;;;;;;4412195;32;20102;-71
2022/11/24 08:42:21;;;;;;;17.73;4.70;;;;;;;;;;4410864;32;19938;-71
2022/11/24 08:44:46;;;;;;;23.67;3.60;;;;;;;;;;4411507;32;20023;-71
2022/11/24 08:47:12;;;;;;;;;;;;;;;;;;4415552;32;20037;-70
2022/11/24 08:49:37;;;;;;;15.77;3.50;;;;;;;;;;4413791;32;19933;-71
2022/11/24 08:52:02;;;;;;;;;;;;;;;;;;4414678;32;20439;-70
2022/11/24 08:54:27;;;;;;;15.55;3.47;;;;;;;;;;4411975;32;19937;-71
2022/11/24 08:56:52;;;;;;;16.77;3.10;;;;;;;;;;4413241;32;20133;-72
2022/11/24 08:59:17;;;;;;;;;;;;;;;;;;4412915;32;20026;-72
2022/11/24 09:01:43;;;;;;;22.15;3.60;;;;;;;;;;4418319;32;19941;-72
2022/11/24 09:04:08;;;;;;;21.95;4.00;;;;;;;;;;4413828;32;20049;-71
2022/11/24 09:06:33;;;;;;;20.95;4.15;;;;;;;;;;4406006;32;20031;-72
2022/11/24 09:08:58;;;;;;;;;;;;;;;;;;4414026;32;20022;-71
2022/11/24 09:11:24;;;;;;;25.08;4.47;;;;;;;;;;4408277;32;19991;-71
2022/11/24 09:13:49;;;;;;;;;;;;;;;;;;4416197;32;20125;-71
2022/11/24 09:16:16;;;;;;;16.50;3.67;;;;;;;;;;4417894;32;19952;-71
2022/11/24 09:18:41;;;;;;;14.73;4.05;;;;;;;;;;4415226;32;20130;-71
2022/11/24 09:21:07;;;;;;;;;;;;;;;;;;4419061;32;20047;-71
2022/11/24 09:23:32;;;;;;;14.60;3.47;;;;;;;;;;4420478;32;19933;-71
2022/11/24 09:25:57;;;;;;;;;;;;;;;;;;4412017;32;20121;-71
2022/11/24 09:28:22;;;;;;;23.52;3.78;;;;;;;;;;4417651;32;19946;-72
2022/11/24 09:30:47;;;;;;;;;;;;;;;;;;4405073;32;20527;-71
2022/11/24 09:33:12;;;;;;;23.08;4.25;;;;;;;;;;4404196;32;20055;-71
2022/11/24 09:35:38;;;;;;;15.40;3.25;;;;;;;;;;4406548;32;20022;-72
2022/11/24 09:38:03;;;;;;;;;;;;;;;;;;4407455;32;20052;-72
2022/11/24 09:40:28;;;;;;;24.65;4.10;;;;;;;;;;4407548;32;19950;-71
2022/11/24 09:42:53;;;;;;;23.75;4.07;;;;;;;;;;4407166;32;20026;-71
2022/11/24 09:45:32;;;;;;;14.35;2.90;;;;;;;;;;4406995;32;20054;-72
2022/11/24 09:48:17;;;;;;;17.55;2.95;;;;;;;;;;4407453;32;20022;-72
2022/11/24 09:50:43;;;;;;;21.65;4.10;;;;;;;;;;4405091;32;20042;-72
2022/11/24 09:53:08;;;;;;;;;;;;;;;;;;4424528;32;20449;-72
2022/11/24 09:55:44;;;;;;;17.73;3.58;;;;;;;;;;4425165;32;19945;-73
2022/11/24 09:58:28;;;;;;;15.88;3.58;;;;;;;;;;4405168;32;20100;-73
2022/11/24 10:00:54;;;;;;;22.52;3.83;;;;;;;;;;4418470;32;20034;-72
2022/11/24 10:03:40;;;;;;;18.05;4.43;;;;;;;;;;4411417;32;20109;-73
2022/11/24 10:06:16;;;;;;;18.23;3.87;;;;;;;;;;4416808;32;20026;-73
2022/11/24 10:08:51;;;;;;;20.17;3.90;;;;;;;;;;4419253;32;20072;-74
2022/11/24 10:11:21;;;;;;;18.77;4.55;;;;;;;;;;4422071;32;20370;-74
2022/11/24 10:13:55;;;;;;;17.23;4.53;;;;;;;;;;4421506;32;20034;-74
2022/11/24 10:16:38;;;;;;;23.70;4.70;;;;;;;;;;4419354;32;20065;-74
2022/11/24 10:19:03;;;;;;;17.40;4.32;;;;;;;;;;4421760;32;20021;-74
2022/11/24 10:21:33;;;;;;;23.90;4.30;;;;;;;;;;4422363;32;20075;-73
2022/11/24 10:24:16;;;;;;;23.60;4.53;;;;;;;;;;4420421;32;20029;-73
2022/11/24 10:26:49;;;;;;;23.17;4.25;;;;;;;;;;4420215;32;20030;-73
2022/11/24 10:29:19;;;;;;;28.17;5.53;;;;;;;;;;4421596;32;20022;-74
2022/11/24 10:31:44;;;;;;;24.37;4.78;;;;;;;;;;4420691;32;20030;-74
2022/11/24 10:34:09;;;;;;;;;;;;;;;;;;4420343;32;20076;-74
2022/11/24 10:36:41;;;;;;;24.65;5.12;;;;;;;;;;4421456;32;19933;-73
2022/11/24 10:39:14;;;;;;;17.40;4.95;;;;;;;;;;4419862;32;20045;-74
2022/11/24 10:41:57;;;;;;;24.12;4.57;;;;;;;;;;4419092;32;20026;-73
2022/11/24 10:44:22;;;;;;;23.65;4.12;;;;;;;;;;4421353;32;20087;-74
2022/11/24 10:46:47;;;;;;;;;;;;;;;;;;4420646;32;20423;-74
2022/11/24 10:49:22;;;;;;;18.67;4.30;;;;;;;;;;4418861;32;19952;-74
2022/11/24 10:51:47;;;;;;;24.63;5.00;;;;;;;;;;4420311;32;20347;-75
2022/11/24 10:54:12;;;;;;;;;;;;;;;;;;4419559;32;20056;-74
2022/11/24 10:56:39;;;;;;;18.60;4.18;;;;;;;;;;4419973;32;19949;-73
2022/11/24 10:59:19;;;;;;;19.37;3.90;;;;;;;;;;4418525;32;20049;-73
2022/11/24 11:01:45;;;;;;;17.33;4.85;;;;;;;;;;4421006;32;20085;-73
2022/11/24 11:04:10;;;;;;;;;;;;;;;;;;4420948;32;20110;-73
2022/11/24 11:06:36;;;;;;;18.42;4.47;;;;;;;;;;4407126;32;19975;-73
2022/11/24 11:09:04;;;;;;;21.33;4.18;;;;;;;;;;4404599;32;20411;-73
2022/11/24 11:11:30;;;;;;;29.12;4.68;;;;;;;;;;4404424;32;20129;-73
2022/11/24 11:13:55;;;;;;;;;;;;;;;;;;4406069;32;20416;-73
2022/11/24 11:16:25;;;;;;;16.40;3.80;;;;;;;;;;4404127;32;19995;-75
2022/11/24 11:18:50;;;;;;;14.40;3.55;;;;;;;;;;4413936;32;20091;-74
2022/11/24 11:21:15;;;;;;;;;;;;;;;;;;4408998;32;20050;-74
2022/11/24 11:23:42;;;;;;;16.60;4.37;;;;;;;;;;4419233;32;20055;-74
2022/11/24 11:26:16;;;;;;;18.50;4.93;;;;;;;;;;4418461;32;20412;-73
2022/11/24 11:28:55;;;;;;;12.88;3.92;;;;;;;;;;4420168;32;20071;-73
2022/11/24 11:31:20;;;;;;;25.27;5.15;;;;;;;;;;4420414;32;20061;-73
2022/11/24 11:33:45;;;;;;;;;;;;;;;;;;4419222;32;20072;-72
2022/11/24 11:36:12;;;;;;;18.20;4.53;;;;;;;;;;4420975;32;19972;-74
2022/11/24 11:38:38;;;;;;;18.75;4.05;;;;;;;;;;4419690;32;20080;-73
2022/11/24 11:41:03;;;;;;;;;;;;;;;;;;4420036;32;20030;-73
2022/11/24 11:43:38;;;;;;;16.40;4.15;;;;;;;;;;4417878;32;19971;-74
2022/11/24 11:46:09;;;;;;;22.83;4.28;;;;;;;;;;4417125;32;20068;-74
2022/11/24 11:48:35;;;;;;;19.65;3.67;;;;;;;;;;4408160;32;20388;-74
2022/11/24 11:51:03;;;;;;;18.65;4.53;;;;;;;;;;4419612;32;20423;-73
2022/11/24 11:53:29;;;;;;;16.60;4.75;;;;;;;;;;4419282;32;20404;-74
2022/11/24 11:55:56;;;;;;;15.57;4.50;;;;;;;;;;4421004;32;20026;-74
2022/11/24 11:58:32;;;;;;;20.85;5.80;;;;;;;;;;4419882;32;20105;-73
2022/11/24 12:01:01;;;;;;;15.45;4.35;;;;;;;;;;4421420;32;20034;-74
2022/11/24 12:03:38;;;;;;;16.35;4.55;;;;;;;;;;4419096;32;20419;-73
2022/11/24 12:06:03;;;;;;;16.60;4.85;;;;;;;;;;4419998;32;20146;-74
2022/11/24 12:08:52;;;;;;;23.40;4.72;;;;;;;;;;4417104;32;20034;-73
2022/11/24 12:11:30;;;;;;;16.73;4.30;;;;;;;;;;4414190;32;20126;-73
2022/11/24 12:14:05;;;;;;;20.10;5.60;;;;;;;;;;4413778;32;20026;-74
2022/11/24 12:16:44;;;;;;;13.65;4.70;;;;;;;;;;4409444;32;20211;-74
2022/11/24 12:19:26;;;;;;;21.10;6.03;;;;;;;;;;4418221;32;20113;-73
2022/11/24 12:21:51;;;;;;;25.92;5.82;;;;;;;;;;4422439;32;20466;-74
2022/11/24 12:24:34;;;;;;;18.12;5.28;;;;;;;;;;4423522;32;20089;-74
2022/11/24 12:27:08;;;;;;;17.55;4.37;;;;;;;;;;4421129;32;20121;-73
2022/11/24 12:29:44;;;;;;;16.52;4.60;;;;;;;;;;4420418;32;20377;-74
2022/11/24 12:32:21;;;;;;;21.40;4.93;;;;;;;;;;4422417;32;20414;-73
2022/11/24 12:35:05;;;;;;;16.20;4.82;;;;;;;;;;4420759;32;20034;-73
2022/11/24 12:37:40;;;;;;;17.12;3.83;;;;;;;;;;4420265;32;20029;-73
2022/11/24 12:40:21;;;;;;;23.65;5.82;;;;;;;;;;4420091;32;20038;-73
2022/11/24 12:43:05;;;;;;;16.77;4.55;;;;;;;;;;4423821;32;20387;-73
2022/11/24 12:45:33;;;;;;;13.85;3.67;;;;;;;;;;4420341;32;20497;-73
2022/11/24 12:48:02;;;;;;;25.67;5.07;;;;;;;;;;4420905;32;20064;-74
2022/11/24 12:50:28;;;;;;;23.80;5.60;;;;;;;;;;4420920;32;20382;-75
2022/11/24 12:52:59;;;;;;;23.95;4.57;;;;;;;;;;4422009;32;20026;-73
2022/11/24 12:55:25;;;;;;;23.27;5.35;;;;;;;;;;4421982;32;20048;-74
2022/11/24 12:58:08;;;;;;;14.32;4.10;;;;;;;;;;4422144;32;20376;-74
2022/11/24 13:01:12;;;;;;;20.17;4.57;;;;;;;;;;4421369;32;20381;-73
2022/11/24 13:03:43;;;;;;;20.25;4.03;;;;;;;;;;4360773;32;20497;-74
2022/11/24 13:06:15;;;;;;;19.45;5.40;;;;;;;;;;4374566;32;20022;-74
2022/11/24 13:08:40;;;;;;;20.12;4.90;;;;;;;;;;4392390;32;20038;-73
2022/11/24 13:11:20;;;;;;;17.50;4.95;;;;;;;;;;4423302;32;20104;-74
2022/11/24 13:14:09;;;;;;;32.85;7.47;;;;;;;;;;4421746;32;20022;-74
2022/11/24 13:16:46;;;;;;;31.73;7.97;;;;;;;;;;4391533;32;20060;-73
2022/11/24 13:19:13;;;;;;;17.95;5.10;;;;;;;;;;4422243;32;20449;-73
2022/11/24 13:21:41;;;;;;;22.20;5.32;;;;;;;;;;4421115;32;20079;-73
2022/11/24 13:24:15;;;;;;;22.00;4.78;;;;;;;;;;4421760;32;20030;-74
2022/11/24 13:26:40;;;;;;;21.37;5.00;;;;;;;;;;4420724;32;20222;-74
2022/11/24 13:29:26;;;;;;;25.40;4.40;;;;;;;;;;4419700;32;20097;-73
2022/11/24 13:31:51;;;;;;;19.50;4.50;;;;;;;;;;4419860;32;20061;-73
2022/11/24 13:34:42;;;;;;;20.35;5.72;;;;;;;;;;4421655;32;20419;-74
2022/11/24 13:37:13;;;;;;;22.52;3.62;;;;;;;;;;4395835;32;20030;-73
2022/11/24 13:39:49;;;;;;;26.42;5.28;;;;;;;;;;4419861;32;20068;-74
2022/11/24 13:42:15;;;;;;;33.03;5.72;;;;;;;;;;4421635;32;20026;-73
2022/11/24 13:44:43;;;;;;;25.08;6.57;;;;;;;;;;4420019;32;20092;-73
2022/11/24 13:47:37;;;;;;;20.80;4.00;;;;;;;;;;4420485;32;20025;-74
2022/11/24 13:50:12;;;;;;;11.48;3.22;;;;;;;;;;4400620;32;20115;-72
2022/11/24 13:52:40;;;;;;;21.75;5.60;;;;;;;;;;4421265;32;20026;-73
2022/11/24 13:55:11;;;;;;;16.17;3.95;;;;;;;;;;4418940;32;20023;-74
2022/11/24 13:57:39;;;;;;;18.20;4.18;;;;;;;;;;4422252;32;20027;-74
2022/11/24 14:00:17;;;;;;;20.08;4.53;;;;;;;;;;4421050;32;20044;-74
2022/11/24 14:02:42;;;;;;;22.65;4.62;;;;;;;;;;4421534;32;20022;-72
2022/11/24 14:05:11;;;;;;;22.13;4.53;;;;;;;;;;4420028;32;20026;-74
2022/11/24 14:07:39;;;;;;;15.60;4.10;;;;;;;;;;4420354;32;20026;-75
2022/11/24 14:10:04;;;;;;;17.15;3.95;;;;;;;;;;4420252;32;20026;-74
2022/11/24 14:12:32;;;;;;;;;;;;;;;;;;4421980;32;20462;-75
2022/11/24 14:15:17;;;;;;;23.17;4.82;;;;;;;;;;4420567;32;19948;-74
2022/11/24 14:17:42;;;;;;;18.42;4.15;;;;;;;;;;4420003;32;20118;-73
2022/11/24 14:20:07;;;;;;;;;;;;;;;;;;4421107;32;20023;-74
2022/11/24 14:22:38;;;;;;;18.65;4.10;;;;;;;;;;4420441;32;19945;-74
2022/11/24 14:25:04;;;;;;;19.77;4.60;;;;;;;;;;4420204;32;20076;-74
2022/11/24 14:27:29;;;;;;;;;;;;;;;;;;4420290;32;20034;-73
2022/11/24 14:29:56;;;;;;;21.65;4.05;;;;;;;;;;4409216;32;19941;-73
2022/11/24 14:32:22;;;;;;;20.88;4.20;;;;;;;;;;4409279;32;20190;-74
2022/11/24 14:34:47;;;;;;;;;;;;;;;;;;4411634;32;20025;-73
2022/11/24 14:37:12;;;;;;;20.30;4.68;;;;;;;;;;4408331;32;19986;-72
2022/11/24 14:39:41;;;;;;;27.75;4.85;;;;;;;;;;4410337;32;20026;-72
2022/11/24 14:42:15;;;;;;;29.35;4.47;;;;;;;;;;4415756;32;20099;-73
2022/11/24 14:44:40;;;;;;;16.00;3.97;;;;;;;;;;4415121;32;20071;-74
2022/11/24 14:47:17;;;;;;;65.43;8.57;;;;;;;;;;4408544;32;20060;-74
2022/11/24 14:49:42;;;;;;;27.90;5.22;;;;;;;;;;4409255;32;20074;-74
2022/11/24 14:52:07;;;;;;;;;;;;;;;;;;4410004;32;20360;-72
2022/11/24 14:54:33;;;;;;;25.55;5.40;;;;;;;;;;4408253;32;19985;-73
2022/11/24 14:57:00;;;;;;;25.75;5.30;;;;;;;;;;4406990;32;20048;-73
2022/11/24 14:59:26;;;;;;;24.25;5.57;;;;;;;;;;4419213;32;20034;-74
2022/11/24 15:01:52;;;;;;;19.02;5.93;;;;;;;;;;4419256;32;20083;-73
2022/11/24 15:04:17;;;;;;;;;;;;;;;;;;4421592;32;20034;-72
2022/11/24 15:06:43;;;;;;;21.17;4.35;;;;;;;;;;4420203;32;20362;-73
2022/11/24 15:09:24;;;;;;;17.20;4.55;;;;;;;;;;4418354;32;20111;-73